sensor_id;sensor_type;location;lat;lon;timestamp;temperature;humidity
25468;DHT22;13384;24.794;110.498;2022-12-11T00:01:21;13.20;97.80
25468;DHT22;13384;24.794;110.498;2022-12-11T00:03:49;13.20;97.60
25468;DHT22;13384;24.794;110.498;2022-12-11T00:06:19;13.20;97.60
25468;DHT22;13384;24.794;110.498;2022-12-11T00:08:52;13.20;97.60
25468;DHT22;13384;24.794;110.498;2022-12-11T00:11:23;13.20;97.60
25468;DHT22;13384;24.794;110.498;2022-12-11T00:13:53;13.20;97.60
25468;DHT22;13384;24.794;110.498;2022-12-11T00:16:24;13.20;97.60
25468;DHT22;13384;24.794;110.498;2022-12-11T00:19:10;13.20;97.60
25468;DHT22;13384;24.794;110.498;2022-12-11T00:21:53;13.20;97.60
25468;DHT22;13384;24.794;110.498;2022-12-11T00:24:36;13.20;97.60
25468;DHT22;13384;24.794;110.498;2022-12-11T00:27:20;13.20;97.60
25468;DHT22;13384;24.794;110.498;2022-12-11T00:30:15;13.20;97.60
25468;DHT22;13384;24.794;110.498;2022-12-11T00:32:59;13.20;97.60
25468;DHT22;13384;24.794;110.498;2022-12-11T00:35:51;13.20;97.50
25468;DHT22;13384;24.794;110.498;2022-12-11T00:38:34;13.20;97.50
25468;DHT22;13384;24.794;110.498;2022-12-11T00:41:17;13.30;97.90
25468;DHT22;13384;24.794;110.498;2022-12-11T00:44:03;13.30;97.60
25468;DHT22;13384;24.794;110.498;2022-12-11T00:46:47;13.30;97.50
25468;DHT22;13384;24.794;110.498;2022-12-11T00:49:30;13.30;97.50
25468;DHT22;13384;24.794;110.498;2022-12-11T00:52:13;13.30;97.50
25468;DHT22;13384;24.794;110.498;2022-12-11T00:55:01;13.30;97.50
25468;DHT22;13384;24.794;110.498;2022-12-11T00:57:44;13.30;97.40
25468;DHT22;13384;24.794;110.498;2022-12-11T01:00:31;13.30;97.40
25468;DHT22;13384;24.794;110.498;2022-12-11T01:03:04;13.30;97.40
25468;DHT22;13384;24.794;110.498;2022-12-11T01:05:34;13.30;97.40
25468;DHT22;13384;24.794;110.498;2022-12-11T01:08:05;13.30;97.20
25468;DHT22;13384;24.794;110.498;2022-12-11T01:10:39;13.30;97.20
25468;DHT22;13384;24.794;110.498;2022-12-11T01:13:11;13.30;97.10
25468;DHT22;13384;24.794;110.498;2022-12-11T01:15:44;13.30;97.20
25468;DHT22;13384;24.794;110.498;2022-12-11T01:18:30;13.40;97.30
25468;DHT22;13384;24.794;110.498;2022-12-11T01:21:07;13.30;97.00
25468;DHT22;13384;24.794;110.498;2022-12-11T01:24:00;13.30;96.40
25468;DHT22;13384;24.794;110.498;2022-12-11T01:26:46;13.20;96.00
25468;DHT22;13384;24.794;110.498;2022-12-11T01:29:17;13.30;96.90
25468;DHT22;13384;24.794;110.498;2022-12-11T01:32:03;13.30;95.40
25468;DHT22;13384;24.794;110.498;2022-12-11T01:34:46;13.20;96.40
25468;DHT22;13384;24.794;110.498;2022-12-11T01:37:16;13.30;96.10
25468;DHT22;13384;24.794;110.498;2022-12-11T01:40:07;13.30;95.80
25468;DHT22;13384;24.794;110.498;2022-12-11T01:42:51;13.30;95.70
25468;DHT22;13384;24.794;110.498;2022-12-11T01:45:46;13.30;96.70
25468;DHT22;13384;24.794;110.498;2022-12-11T01:48:35;13.30;95.00
25468;DHT22;13384;24.794;110.498;2022-12-11T01:51:09;13.30;95.20
25468;DHT22;13384;24.794;110.498;2022-12-11T01:53:47;13.30;94.40
25468;DHT22;13384;24.794;110.498;2022-12-11T01:56:22;13.30;96.10
25468;DHT22;13384;24.794;110.498;2022-12-11T01:59:07;13.30;93.60
25468;DHT22;13384;24.794;110.498;2022-12-11T02:02:20;13.30;94.90
25468;DHT22;13384;24.794;110.498;2022-12-11T02:05:23;13.30;94.70
25468;DHT22;13384;24.794;110.498;2022-12-11T02:08:07;13.30;94.80
25468;DHT22;13384;24.794;110.498;2022-12-11T02:11:10;13.40;94.50
25468;DHT22;13384;24.794;110.498;2022-12-11T02:16:58;13.30;94.00
25468;DHT22;13384;24.794;110.498;2022-12-11T02:25:29;13.50;94.70
25468;DHT22;13384;24.794;110.498;2022-12-11T02:31:23;13.50;94.40
25468;DHT22;13384;24.794;110.498;2022-12-11T02:34:07;13.50;94.40
25468;DHT22;13384;24.794;110.498;2022-12-11T02:36:52;13.50;94.60
25468;DHT22;13384;24.794;110.498;2022-12-11T02:39:26;13.50;94.40
25468;DHT22;13384;24.794;110.498;2022-12-11T02:41:59;13.50;95.00
25468;DHT22;13384;24.794;110.498;2022-12-11T02:44:33;13.60;95.10
25468;DHT22;13384;24.794;110.498;2022-12-11T02:47:20;13.60;94.00
25468;DHT22;13384;24.794;110.498;2022-12-11T02:50:10;13.60;94.20
25468;DHT22;13384;24.794;110.498;2022-12-11T02:52:59;13.60;93.40
25468;DHT22;13384;24.794;110.498;2022-12-11T02:55:35;13.60;93.00
25468;DHT22;13384;24.794;110.498;2022-12-11T02:58:27;13.60;92.90
25468;DHT22;13384;24.794;110.498;2022-12-11T03:01:01;13.60;93.50
25468;DHT22;13384;24.794;110.498;2022-12-11T03:03:32;13.60;92.60
25468;DHT22;13384;24.794;110.498;2022-12-11T03:06:21;13.60;93.60
25468;DHT22;13384;24.794;110.498;2022-12-11T03:08:53;13.60;93.20
25468;DHT22;13384;24.794;110.498;2022-12-11T03:11:40;13.60;93.70
25468;DHT22;13384;24.794;110.498;2022-12-11T03:14:26;13.60;93.70
25468;DHT22;13384;24.794;110.498;2022-12-11T03:17:23;13.70;92.80
25468;DHT22;13384;24.794;110.498;2022-12-11T03:31:28;13.70;93.60
25468;DHT22;13384;24.794;110.498;2022-12-11T03:34:01;13.80;94.00
25468;DHT22;13384;24.794;110.498;2022-12-11T03:37:03;13.70;94.10
25468;DHT22;13384;24.794;110.498;2022-12-11T03:39:36;13.80;94.10
25468;DHT22;13384;24.794;110.498;2022-12-11T03:42:11;13.80;94.00
25468;DHT22;13384;24.794;110.498;2022-12-11T03:44:58;13.80;94.40
25468;DHT22;13384;24.794;110.498;2022-12-11T03:47:44;13.80;94.10
25468;DHT22;13384;24.794;110.498;2022-12-11T03:50:30;13.80;94.00
25468;DHT22;13384;24.794;110.498;2022-12-11T03:53:04;13.80;94.30
25468;DHT22;13384;24.794;110.498;2022-12-11T03:55:51;13.80;93.90
25468;DHT22;13384;24.794;110.498;2022-12-11T03:58:25;13.80;94.20
25468;DHT22;13384;24.794;110.498;2022-12-11T04:00:57;13.80;93.80
25468;DHT22;13384;24.794;110.498;2022-12-11T04:03:46;13.80;93.70
25468;DHT22;13384;24.794;110.498;2022-12-11T04:06:17;13.80;94.30
25468;DHT22;13384;24.794;110.498;2022-12-11T04:08:48;13.80;93.60
25468;DHT22;13384;24.794;110.498;2022-12-11T04:11:19;13.80;94.00
25468;DHT22;13384;24.794;110.498;2022-12-11T04:14:17;13.80;93.20
25468;DHT22;13384;24.794;110.498;2022-12-11T04:17:19;13.80;93.30
25468;DHT22;13384;24.794;110.498;2022-12-11T04:20:10;13.80;93.30
25468;DHT22;13384;24.794;110.498;2022-12-11T04:22:59;13.80;93.60
25468;DHT22;13384;24.794;110.498;2022-12-11T04:26:17;13.80;93.90
25468;DHT22;13384;24.794;110.498;2022-12-11T04:28:49;13.80;93.80
25468;DHT22;13384;24.794;110.498;2022-12-11T04:31:48;13.90;93.00
25468;DHT22;13384;24.794;110.498;2022-12-11T04:34:32;13.80;93.20
25468;DHT22;13384;24.794;110.498;2022-12-11T04:37:02;13.80;92.00
25468;DHT22;13384;24.794;110.498;2022-12-11T04:39:33;13.90;91.90
25468;DHT22;13384;24.794;110.498;2022-12-11T04:42:16;13.90;91.50
25468;DHT22;13384;24.794;110.498;2022-12-11T04:44:59;13.90;92.30
25468;DHT22;13384;24.794;110.498;2022-12-11T04:47:43;13.90;93.00
25468;DHT22;13384;24.794;110.498;2022-12-11T04:50:32;13.90;92.90
25468;DHT22;13384;24.794;110.498;2022-12-11T04:53:15;13.90;93.00
25468;DHT22;13384;24.794;110.498;2022-12-11T04:55:58;13.80;93.00
25468;DHT22;13384;24.794;110.498;2022-12-11T04:58:48;13.80;93.00
25468;DHT22;13384;24.794;110.498;2022-12-11T05:01:33;13.80;93.30
25468;DHT22;13384;24.794;110.498;2022-12-11T05:04:19;13.80;93.40
25468;DHT22;13384;24.794;110.498;2022-12-11T05:07:02;13.90;92.60
25468;DHT22;13384;24.794;110.498;2022-12-11T05:09:46;13.90;93.00
25468;DHT22;13384;24.794;110.498;2022-12-11T05:12:32;13.90;93.00
25468;DHT22;13384;24.794;110.498;2022-12-11T05:15:03;13.80;93.00
25468;DHT22;13384;24.794;110.498;2022-12-11T05:17:33;13.80;93.50
25468;DHT22;13384;24.794;110.498;2022-12-11T05:20:17;13.80;93.50
25468;DHT22;13384;24.794;110.498;2022-12-11T05:23:05;13.90;93.60
25468;DHT22;13384;24.794;110.498;2022-12-11T05:26:02;13.80;93.40
25468;DHT22;13384;24.794;110.498;2022-12-11T05:28:37;13.90;93.50
25468;DHT22;13384;24.794;110.498;2022-12-11T05:31:12;13.90;93.60
25468;DHT22;13384;24.794;110.498;2022-12-11T05:33:55;13.90;93.70
25468;DHT22;13384;24.794;110.498;2022-12-11T05:36:42;13.90;93.80
25468;DHT22;13384;24.794;110.498;2022-12-11T05:39:13;13.90;93.40
25468;DHT22;13384;24.794;110.498;2022-12-11T05:41:44;13.90;93.20
25468;DHT22;13384;24.794;110.498;2022-12-11T05:44:30;13.90;93.70
25468;DHT22;13384;24.794;110.498;2022-12-11T05:47:14;13.90;93.60
25468;DHT22;13384;24.794;110.498;2022-12-11T05:49:58;13.90;93.60
25468;DHT22;13384;24.794;110.498;2022-12-11T05:52:42;13.90;93.50
25468;DHT22;13384;24.794;110.498;2022-12-11T05:55:24;13.90;93.50
25468;DHT22;13384;24.794;110.498;2022-12-11T05:58:08;13.90;93.20
25468;DHT22;13384;24.794;110.498;2022-12-11T06:00:51;14.00;92.70
25468;DHT22;13384;24.794;110.498;2022-12-11T06:03:34;14.00;92.80
25468;DHT22;13384;24.794;110.498;2022-12-11T06:06:18;14.00;92.10
25468;DHT22;13384;24.794;110.498;2022-12-11T06:08:51;14.00;93.10
25468;DHT22;13384;24.794;110.498;2022-12-11T06:11:24;13.90;92.70
25468;DHT22;13384;24.794;110.498;2022-12-11T06:14:09;14.00;92.90
25468;DHT22;13384;24.794;110.498;2022-12-11T06:16:40;14.00;92.40
25468;DHT22;13384;24.794;110.498;2022-12-11T06:19:13;14.00;92.80
25468;DHT22;13384;24.794;110.498;2022-12-11T06:21:57;14.00;92.90
25468;DHT22;13384;24.794;110.498;2022-12-11T06:24:40;14.00;92.60
25468;DHT22;13384;24.794;110.498;2022-12-11T06:27:24;14.00;93.10
25468;DHT22;13384;24.794;110.498;2022-12-11T06:29:59;14.00;92.60
25468;DHT22;13384;24.794;110.498;2022-12-11T06:32:52;14.00;92.50
25468;DHT22;13384;24.794;110.498;2022-12-11T06:36:05;14.00;92.80
25468;DHT22;13384;24.794;110.498;2022-12-11T06:38:36;14.00;92.30
25468;DHT22;13384;24.794;110.498;2022-12-11T06:41:10;14.00;92.40
25468;DHT22;13384;24.794;110.498;2022-12-11T06:43:39;14.00;91.90
25468;DHT22;13384;24.794;110.498;2022-12-11T06:46:12;14.00;92.40
25468;DHT22;13384;24.794;110.498;2022-12-11T06:48:41;14.00;92.30
25468;DHT22;13384;24.794;110.498;2022-12-11T06:51:15;14.00;92.80
25468;DHT22;13384;24.794;110.498;2022-12-11T06:53:49;14.00;92.70
25468;DHT22;13384;24.794;110.498;2022-12-11T06:56:19;14.00;92.20
25468;DHT22;13384;24.794;110.498;2022-12-11T06:59:11;14.00;92.30
25468;DHT22;13384;24.794;110.498;2022-12-11T07:01:43;14.00;92.20
25468;DHT22;13384;24.794;110.498;2022-12-11T07:04:32;14.00;91.80
25468;DHT22;13384;24.794;110.498;2022-12-11T07:07:03;14.00;92.70
25468;DHT22;13384;24.794;110.498;2022-12-11T07:09:47;14.00;91.70
25468;DHT22;13384;24.794;110.498;2022-12-11T07:12:39;14.00;92.20
25468;DHT22;13384;24.794;110.498;2022-12-11T07:15:23;14.00;92.20
25468;DHT22;13384;24.794;110.498;2022-12-11T07:18:06;14.00;92.40
25468;DHT22;13384;24.794;110.498;2022-12-11T07:20:50;14.00;92.70
25468;DHT22;13384;24.794;110.498;2022-12-11T07:23:18;14.00;92.00
25468;DHT22;13384;24.794;110.498;2022-12-11T07:25:49;14.10;92.10
25468;DHT22;13384;24.794;110.498;2022-12-11T07:28:17;14.10;92.10
25468;DHT22;13384;24.794;110.498;2022-12-11T07:30:48;14.00;91.50
25468;DHT22;13384;24.794;110.498;2022-12-11T07:33:17;14.00;92.10
25468;DHT22;13384;24.794;110.498;2022-12-11T07:35:45;14.00;92.50
25468;DHT22;13384;24.794;110.498;2022-12-11T07:38:35;14.00;92.70
25468;DHT22;13384;24.794;110.498;2022-12-11T07:41:26;14.00;91.70
25468;DHT22;13384;24.794;110.498;2022-12-11T07:44:11;14.00;92.10
25468;DHT22;13384;24.794;110.498;2022-12-11T07:46:54;14.00;92.70
25468;DHT22;13384;24.794;110.498;2022-12-11T07:49:39;14.00;92.40
25468;DHT22;13384;24.794;110.498;2022-12-11T07:52:07;14.00;92.00
25468;DHT22;13384;24.794;110.498;2022-12-11T07:54:36;14.00;92.40
25468;DHT22;13384;24.794;110.498;2022-12-11T07:57:04;14.00;91.90
25468;DHT22;13384;24.794;110.498;2022-12-11T07:59:33;14.00;92.50
25468;DHT22;13384;24.794;110.498;2022-12-11T08:02:01;14.00;92.40
25468;DHT22;13384;24.794;110.498;2022-12-11T08:04:30;14.00;92.40
25468;DHT22;13384;24.794;110.498;2022-12-11T08:07:00;14.00;91.60
25468;DHT22;13384;24.794;110.498;2022-12-11T08:09:29;14.00;92.60
25468;DHT22;13384;24.794;110.498;2022-12-11T08:12:12;14.00;92.80
25468;DHT22;13384;24.794;110.498;2022-12-11T08:14:56;14.00;92.90
25468;DHT22;13384;24.794;110.498;2022-12-11T08:17:40;14.00;93.00
25468;DHT22;13384;24.794;110.498;2022-12-11T08:20:23;14.00;92.80
25468;DHT22;13384;24.794;110.498;2022-12-11T08:23:07;14.00;93.00
25468;DHT22;13384;24.794;110.498;2022-12-11T08:25:35;14.00;92.70
25468;DHT22;13384;24.794;110.498;2022-12-11T08:28:14;14.00;93.10
25468;DHT22;13384;24.794;110.498;2022-12-11T08:31:02;14.00;93.20
25468;DHT22;13384;24.794;110.498;2022-12-11T08:33:46;14.00;93.30
25468;DHT22;13384;24.794;110.498;2022-12-11T08:36:33;14.00;93.40
25468;DHT22;13384;24.794;110.498;2022-12-11T08:39:16;14.00;93.30
25468;DHT22;13384;24.794;110.498;2022-12-11T08:42:06;14.00;93.40
25468;DHT22;13384;24.794;110.498;2022-12-11T08:44:49;14.00;93.40
25468;DHT22;13384;24.794;110.498;2022-12-11T08:47:33;14.00;93.40
25468;DHT22;13384;24.794;110.498;2022-12-11T08:50:16;14.00;93.40
25468;DHT22;13384;24.794;110.498;2022-12-11T08:52:49;14.00;93.30
25468;DHT22;13384;24.794;110.498;2022-12-11T08:55:39;14.00;93.50
25468;DHT22;13384;24.794;110.498;2022-12-11T08:58:20;14.00;92.60
25468;DHT22;13384;24.794;110.498;2022-12-11T09:01:18;14.00;93.40
25468;DHT22;13384;24.794;110.498;2022-12-11T09:03:55;14.00;93.50
25468;DHT22;13384;24.794;110.498;2022-12-11T09:06:39;14.00;93.50
25468;DHT22;13384;24.794;110.498;2022-12-11T09:09:22;14.00;93.60
25468;DHT22;13384;24.794;110.498;2022-12-11T09:11:53;14.00;93.60
25468;DHT22;13384;24.794;110.498;2022-12-11T09:14:45;14.00;93.60
25468;DHT22;13384;24.794;110.498;2022-12-11T09:17:36;14.00;93.70
25468;DHT22;13384;24.794;110.498;2022-12-11T09:20:25;14.00;93.70
25468;DHT22;13384;24.794;110.498;2022-12-11T09:23:09;14.00;93.70
25468;DHT22;13384;24.794;110.498;2022-12-11T09:25:52;14.00;93.80
25468;DHT22;13384;24.794;110.498;2022-12-11T09:28:36;14.00;94.00
25468;DHT22;13384;24.794;110.498;2022-12-11T09:31:28;14.00;94.10
25468;DHT22;13384;24.794;110.498;2022-12-11T09:34:12;14.00;94.10
25468;DHT22;13384;24.794;110.498;2022-12-11T09:37:05;13.90;94.20
25468;DHT22;13384;24.794;110.498;2022-12-11T09:39:48;13.90;94.20
25468;DHT22;13384;24.794;110.498;2022-12-11T09:42:52;13.90;94.20
25468;DHT22;13384;24.794;110.498;2022-12-11T09:45:37;13.90;94.30
25468;DHT22;13384;24.794;110.498;2022-12-11T09:48:24;14.00;94.30
25468;DHT22;13384;24.794;110.498;2022-12-11T09:54:13;13.90;94.30
25468;DHT22;13384;24.794;110.498;2022-12-11T10:00:23;13.90;94.50
25468;DHT22;13384;24.794;110.498;2022-12-11T10:06:14;13.90;94.60
25468;DHT22;13384;24.794;110.498;2022-12-11T10:15:35;13.90;94.70
25468;DHT22;13384;24.794;110.498;2022-12-11T10:18:40;13.90;94.80
25468;DHT22;13384;24.794;110.498;2022-12-11T10:21:35;13.90;94.80
25468;DHT22;13384;24.794;110.498;2022-12-11T10:27:27;13.90;94.90
25468;DHT22;13384;24.794;110.498;2022-12-11T10:30:20;13.80;94.90
25468;DHT22;13384;24.794;110.498;2022-12-11T10:35:51;13.80;94.90
25468;DHT22;13384;24.794;110.498;2022-12-11T10:38:31;13.80;95.00
25468;DHT22;13384;24.794;110.498;2022-12-11T10:41:45;13.80;95.00
25468;DHT22;13384;24.794;110.498;2022-12-11T10:44:30;13.80;95.00
25468;DHT22;13384;24.794;110.498;2022-12-11T10:47:16;13.80;95.00
25468;DHT22;13384;24.794;110.498;2022-12-11T10:50:02;13.80;95.10
25468;DHT22;13384;24.794;110.498;2022-12-11T10:52:45;13.80;95.10
25468;DHT22;13384;24.794;110.498;2022-12-11T10:55:38;13.80;95.20
25468;DHT22;13384;24.794;110.498;2022-12-11T10:58:51;13.80;95.20
25468;DHT22;13384;24.794;110.498;2022-12-11T11:01:37;13.70;95.20
25468;DHT22;13384;24.794;110.498;2022-12-11T11:04:30;13.80;95.20
25468;DHT22;13384;24.794;110.498;2022-12-11T11:07:23;13.80;95.20
25468;DHT22;13384;24.794;110.498;2022-12-11T11:12:47;13.70;95.30
25468;DHT22;13384;24.794;110.498;2022-12-11T11:15:38;13.70;95.30
25468;DHT22;13384;24.794;110.498;2022-12-11T11:18:21;13.70;95.40
25468;DHT22;13384;24.794;110.498;2022-12-11T11:20:55;13.80;95.40
25468;DHT22;13384;24.794;110.498;2022-12-11T11:23:26;13.70;95.40
25468;DHT22;13384;24.794;110.498;2022-12-11T11:26:13;13.70;95.40
25468;DHT22;13384;24.794;110.498;2022-12-11T11:28:56;13.70;95.50
25468;DHT22;13384;24.794;110.498;2022-12-11T11:31:32;13.70;95.50
25468;DHT22;13384;24.794;110.498;2022-12-11T11:34:07;13.70;95.50
25468;DHT22;13384;24.794;110.498;2022-12-11T11:36:56;13.70;95.50
25468;DHT22;13384;24.794;110.498;2022-12-11T11:39:36;13.70;95.50
25468;DHT22;13384;24.794;110.498;2022-12-11T11:42:14;13.70;95.60
25468;DHT22;13384;24.794;110.498;2022-12-11T11:45:28;13.70;95.60
25468;DHT22;13384;24.794;110.498;2022-12-11T11:51:42;13.70;95.60
25468;DHT22;13384;24.794;110.498;2022-12-11T11:57:55;13.70;95.70
25468;DHT22;13384;24.794;110.498;2022-12-11T12:00:39;13.70;96.10
25468;DHT22;13384;24.794;110.498;2022-12-11T12:03:23;13.70;95.60
25468;DHT22;13384;24.794;110.498;2022-12-11T12:09:09;13.60;95.60
25468;DHT22;13384;24.794;110.498;2022-12-11T12:15:14;13.60;95.70
25468;DHT22;13384;24.794;110.498;2022-12-11T12:18:05;13.60;95.80
25468;DHT22;13384;24.794;110.498;2022-12-11T12:24:21;13.60;95.80
25468;DHT22;13384;24.794;110.498;2022-12-11T12:27:29;13.60;95.70
25468;DHT22;13384;24.794;110.498;2022-12-11T12:30:17;13.60;95.80
25468;DHT22;13384;24.794;110.498;2022-12-11T12:33:13;13.60;96.00
25468;DHT22;13384;24.794;110.498;2022-12-11T12:36:06;13.60;95.80
25468;DHT22;13384;24.794;110.498;2022-12-11T12:38:53;13.60;95.80
25468;DHT22;13384;24.794;110.498;2022-12-11T12:47:46;13.60;95.90
25468;DHT22;13384;24.794;110.498;2022-12-11T12:50:37;13.60;95.80
25468;DHT22;13384;24.794;110.498;2022-12-11T12:53:29;13.60;95.90
25468;DHT22;13384;24.794;110.498;2022-12-11T12:56:11;13.60;95.90
25468;DHT22;13384;24.794;110.498;2022-12-11T12:58:44;13.60;95.90
25468;DHT22;13384;24.794;110.498;2022-12-11T13:01:28;13.60;96.00
25468;DHT22;13384;24.794;110.498;2022-12-11T13:04:42;13.50;95.90
25468;DHT22;13384;24.794;110.498;2022-12-11T13:07:33;13.60;95.90
25468;DHT22;13384;24.794;110.498;2022-12-11T13:10:26;13.50;95.90
25468;DHT22;13384;24.794;110.498;2022-12-11T13:12:55;13.50;95.90
25468;DHT22;13384;24.794;110.498;2022-12-11T13:15:45;13.50;96.00
25468;DHT22;13384;24.794;110.498;2022-12-11T13:18:38;13.50;95.90
25468;DHT22;13384;24.794;110.498;2022-12-11T13:21:36;13.50;96.00
25468;DHT22;13384;24.794;110.498;2022-12-11T13:24:24;13.50;96.00
25468;DHT22;13384;24.794;110.498;2022-12-11T13:27:25;13.50;96.00
25468;DHT22;13384;24.794;110.498;2022-12-11T13:33:07;13.50;96.00
25468;DHT22;13384;24.794;110.498;2022-12-11T13:39:02;13.50;96.00
25468;DHT22;13384;24.794;110.498;2022-12-11T13:41:53;13.50;96.00
25468;DHT22;13384;24.794;110.498;2022-12-11T13:44:39;13.50;96.00
25468;DHT22;13384;24.794;110.498;2022-12-11T13:47:24;13.50;96.00
25468;DHT22;13384;24.794;110.498;2022-12-11T13:51:59;13.50;96.00
25468;DHT22;13384;24.794;110.498;2022-12-11T13:54:29;13.50;96.00
25468;DHT22;13384;24.794;110.498;2022-12-11T13:57:14;13.50;96.00
25468;DHT22;13384;24.794;110.498;2022-12-11T13:59:57;13.50;96.00
25468;DHT22;13384;24.794;110.498;2022-12-11T14:02:41;13.50;96.10
25468;DHT22;13384;24.794;110.498;2022-12-11T14:05:24;13.50;96.00
25468;DHT22;13384;24.794;110.498;2022-12-11T14:08:21;13.40;96.00
25468;DHT22;13384;24.794;110.498;2022-12-11T14:11:05;13.40;96.10
25468;DHT22;13384;24.794;110.498;2022-12-11T14:13:36;13.40;96.10
25468;DHT22;13384;24.794;110.498;2022-12-11T14:16:23;13.40;96.10
25468;DHT22;13384;24.794;110.498;2022-12-11T14:19:07;13.50;96.20
25468;DHT22;13384;24.794;110.498;2022-12-11T14:22:00;13.50;96.10
25468;DHT22;13384;24.794;110.498;2022-12-11T14:24:53;13.50;96.10
25468;DHT22;13384;24.794;110.498;2022-12-11T14:27:48;13.50;96.10
25468;DHT22;13384;24.794;110.498;2022-12-11T14:30:32;13.50;96.10
25468;DHT22;13384;24.794;110.498;2022-12-11T14:33:36;13.50;96.20
25468;DHT22;13384;24.794;110.498;2022-12-11T14:36:23;13.40;96.20
25468;DHT22;13384;24.794;110.498;2022-12-11T14:39:02;13.40;96.10
25468;DHT22;13384;24.794;110.498;2022-12-11T14:41:47;13.40;96.20
25468;DHT22;13384;24.794;110.498;2022-12-11T14:44:24;13.40;96.20
25468;DHT22;13384;24.794;110.498;2022-12-11T14:47:01;13.40;96.20
25468;DHT22;13384;24.794;110.498;2022-12-11T14:50:22;13.40;96.20
25468;DHT22;13384;24.794;110.498;2022-12-11T14:53:01;13.40;96.20
25468;DHT22;13384;24.794;110.498;2022-12-11T14:56:25;13.40;96.10
25468;DHT22;13384;24.794;110.498;2022-12-11T14:59:18;13.40;96.20
25468;DHT22;13384;24.794;110.498;2022-12-11T15:02:28;13.40;96.20
25468;DHT22;13384;24.794;110.498;2022-12-11T15:05:17;13.40;96.50
25468;DHT22;13384;24.794;110.498;2022-12-11T15:10:57;13.40;96.30
25468;DHT22;13384;24.794;110.498;2022-12-11T15:13:58;13.40;96.20
25468;DHT22;13384;24.794;110.498;2022-12-11T15:16:42;13.40;96.30
25468;DHT22;13384;24.794;110.498;2022-12-11T15:19:31;13.40;96.20
25468;DHT22;13384;24.794;110.498;2022-12-11T15:22:22;13.40;96.30
25468;DHT22;13384;24.794;110.498;2022-12-11T15:24:57;13.40;96.20
25468;DHT22;13384;24.794;110.498;2022-12-11T15:28:01;13.40;96.30
25468;DHT22;13384;24.794;110.498;2022-12-11T15:30:58;13.40;96.20
25468;DHT22;13384;24.794;110.498;2022-12-11T15:33:31;13.40;96.20
25468;DHT22;13384;24.794;110.498;2022-12-11T15:36:05;13.40;96.20
25468;DHT22;13384;24.794;110.498;2022-12-11T15:38:49;13.40;96.20
25468;DHT22;13384;24.794;110.498;2022-12-11T15:41:20;13.40;96.20
25468;DHT22;13384;24.794;110.498;2022-12-11T15:43:55;13.30;96.20
25468;DHT22;13384;24.794;110.498;2022-12-11T15:46:42;13.40;96.20
25468;DHT22;13384;24.794;110.498;2022-12-11T15:49:26;13.40;96.30
25468;DHT22;13384;24.794;110.498;2022-12-11T15:52:15;13.40;96.20
25468;DHT22;13384;24.794;110.498;2022-12-11T15:55:02;13.40;96.30
25468;DHT22;13384;24.794;110.498;2022-12-11T15:58:16;13.30;96.20
25468;DHT22;13384;24.794;110.498;2022-12-11T16:00:37;13.40;96.30
25468;DHT22;13384;24.794;110.498;2022-12-11T16:03:22;13.30;96.20
25468;DHT22;13384;24.794;110.498;2022-12-11T16:05:58;13.30;96.30
25468;DHT22;13384;24.794;110.498;2022-12-11T16:08:29;13.30;96.30
25468;DHT22;13384;24.794;110.498;2022-12-11T16:11:24;13.30;96.30
25468;DHT22;13384;24.794;110.498;2022-12-11T16:13:56;13.30;96.30
25468;DHT22;13384;24.794;110.498;2022-12-11T16:16:27;13.30;96.30
25468;DHT22;13384;24.794;110.498;2022-12-11T16:18:58;13.30;96.30
25468;DHT22;13384;24.794;110.498;2022-12-11T16:21:29;13.30;96.30
25468;DHT22;13384;24.794;110.498;2022-12-11T16:24:13;13.30;96.30
25468;DHT22;13384;24.794;110.498;2022-12-11T16:26:59;13.30;96.30
25468;DHT22;13384;24.794;110.498;2022-12-11T16:29:44;13.30;96.30
25468;DHT22;13384;24.794;110.498;2022-12-11T16:32:27;13.30;96.30
25468;DHT22;13384;24.794;110.498;2022-12-11T16:34:59;13.30;96.30
25468;DHT22;13384;24.794;110.498;2022-12-11T16:37:42;13.30;96.30
25468;DHT22;13384;24.794;110.498;2022-12-11T16:40:32;13.30;96.30
25468;DHT22;13384;24.794;110.498;2022-12-11T16:43:04;13.30;96.20
25468;DHT22;13384;24.794;110.498;2022-12-11T16:45:35;13.30;96.30
25468;DHT22;13384;24.794;110.498;2022-12-11T16:48:21;13.30;96.20
25468;DHT22;13384;24.794;110.498;2022-12-11T16:51:05;13.40;96.30
25468;DHT22;13384;24.794;110.498;2022-12-11T16:53:51;13.30;96.00
25468;DHT22;13384;24.794;110.498;2022-12-11T16:56:22;13.30;96.30
25468;DHT22;13384;24.794;110.498;2022-12-11T16:59:12;13.30;96.30
25468;DHT22;13384;24.794;110.498;2022-12-11T17:01:43;13.30;96.30
25468;DHT22;13384;24.794;110.498;2022-12-11T17:04:17;13.30;96.30
25468;DHT22;13384;24.794;110.498;2022-12-11T17:06:47;13.30;96.30
25468;DHT22;13384;24.794;110.498;2022-12-11T17:09:34;13.30;96.30
25468;DHT22;13384;24.794;110.498;2022-12-11T17:12:20;13.30;96.30
25468;DHT22;13384;24.794;110.498;2022-12-11T17:15:09;13.30;96.30
25468;DHT22;13384;24.794;110.498;2022-12-11T17:17:48;13.30;96.30
25468;DHT22;13384;24.794;110.498;2022-12-11T17:20:31;13.30;96.30
25468;DHT22;13384;24.794;110.498;2022-12-11T17:23:22;13.30;96.30
25468;DHT22;13384;24.794;110.498;2022-12-11T17:26:09;13.30;96.30
25468;DHT22;13384;24.794;110.498;2022-12-11T17:28:52;13.30;96.30
25468;DHT22;13384;24.794;110.498;2022-12-11T17:31:23;13.20;96.20
25468;DHT22;13384;24.794;110.498;2022-12-11T17:33:54;13.20;96.30
25468;DHT22;13384;24.794;110.498;2022-12-11T17:36:41;13.20;96.30
25468;DHT22;13384;24.794;110.498;2022-12-11T17:39:16;13.20;96.30
25468;DHT22;13384;24.794;110.498;2022-12-11T17:42:08;13.20;96.30
25468;DHT22;13384;24.794;110.498;2022-12-11T17:44:39;13.20;96.30
25468;DHT22;13384;24.794;110.498;2022-12-11T17:47:09;13.20;96.30
25468;DHT22;13384;24.794;110.498;2022-12-11T17:49:53;13.20;96.30
25468;DHT22;13384;24.794;110.498;2022-12-11T17:52:46;13.20;96.10
25468;DHT22;13384;24.794;110.498;2022-12-11T17:55:29;13.20;96.30
25468;DHT22;13384;24.794;110.498;2022-12-11T17:58:15;13.20;96.30
25468;DHT22;13384;24.794;110.498;2022-12-11T18:00:59;13.20;96.30
25468;DHT22;13384;24.794;110.498;2022-12-11T18:03:30;13.20;96.30